Aviation Digital Data Service (ADDS)

Output produced by METARs form (0534 UTC 16 February 2019)
found at http://www.aviationweather.gov/metar/data/
 
METAR text: LLSD 160450Z 21012KT 3000 SHRA SCT015TCU OVC029 12/10 Q1018 RETS
Conditions at: LLSD (SDE DOV AIRPORT , IL) observed 0450 UTC 16 February 2019
Temperature: 12.0°C (54°F)
Dewpoint: 10.0°C (50°F) [RH = 88%]
Pressure (altimeter): 30.06 inches Hg (1018.0 mb)
Winds: from the SSW (210 degrees) at 14 MPH (12 knots; 6.2 m/s)
Visibility: 1.86 miles (2.99 km)
Ceiling: 2900 feet AGL
Clouds: scattered clouds at 1500 feet AGL
overcast cloud deck at 2900 feet AGL
Weather: SHRA  (rain showers)

METAR text: LLSD 151950Z 22017KT 6000 -RA BKN034 16/10 Q1014
Conditions at: LLSD (SDE DOV AIRPORT , IL) observed 1950 UTC 15 February 2019
Temperature: 16.0°C (61°F)
Dewpoint: 10.0°C (50°F) [RH = 68%]
Pressure (altimeter): 29.94 inches Hg (1014.0 mb)
Winds: from the SW (220 degrees) at 20 MPH (17 knots; 8.7 m/s)
Visibility: 4 miles ( 6 km)
Ceiling: 3400 feet AGL
Clouds: broken clouds at 3400 feet AGL
Weather: -RA  (light rain)

METAR text: LLSD 151850Z 22018KT 8000 BKN035 16/09 Q1014
Conditions at: LLSD (SDE DOV AIRPORT , IL) observed 1850 UTC 15 February 2019
Temperature: 16.0°C (61°F)
Dewpoint: 9.0°C (48°F) [RH = 63%]
Pressure (altimeter): 29.94 inches Hg (1014.0 mb)
Winds: from the SW (220 degrees) at 21 MPH (18 knots; 9.3 m/s)
Visibility: 5 miles ( 8 km)
Ceiling: 3500 feet AGL
Clouds: broken clouds at 3500 feet AGL
Weather: no significant weather observed at this time

METAR text: LLSD 151750Z 22016KT 8000 SCT032 16/10 Q1014 RMK BKN059
Conditions at: LLSD (SDE DOV AIRPORT , IL) observed 1750 UTC 15 February 2019
Temperature: 16.0°C (61°F)
Dewpoint: 10.0°C (50°F) [RH = 68%]
Pressure (altimeter): 29.94 inches Hg (1014.0 mb)
Winds: from the SW (220 degrees) at 18 MPH (16 knots; 8.2 m/s)
Visibility: 5 miles ( 8 km)
Ceiling: at least 12,000 feet AGL
Clouds: scattered clouds at 3200 feet AGL
Weather: no significant weather observed at this time

METAR text: LLSD 151650Z 22016KT 7000 BKN043 16/08 Q1013
Conditions at: LLSD (SDE DOV AIRPORT , IL) observed 1650 UTC 15 February 2019
Temperature: 16.0°C (61°F)
Dewpoint: 8.0°C (46°F) [RH = 59%]
Pressure (altimeter): 29.91 inches Hg (1013.0 mb)
Winds: from the SW (220 degrees) at 18 MPH (16 knots; 8.2 m/s)
Visibility: 4 miles ( 7 km)
Ceiling: 4300 feet AGL
Clouds: broken clouds at 4300 feet AGL
Weather: no significant weather observed at this time

METAR text: LLSD 151550Z 21015G25KT 7000 BKN050 16/06 Q1013
Conditions at: LLSD (SDE DOV AIRPORT , IL) observed 1550 UTC 15 February 2019
Temperature: 16.0°C (61°F)
Dewpoint: 6.0°C (43°F) [RH = 51%]
Pressure (altimeter): 29.91 inches Hg (1013.0 mb)
Winds: from the SSW (210 degrees) at 17 MPH (15 knots; 7.7 m/s)
gusting to 29 MPH (25 knots; 12.9 m/s)
Visibility: 4 miles ( 7 km)
Ceiling: 5000 feet AGL
Clouds: broken clouds at 5000 feet AGL
Weather: no significant weather observed at this time

METAR text: LLSD 151450Z 21014KT 6000 SCT050 16/06 Q1013 RMK BKN061
Conditions at: LLSD (SDE DOV AIRPORT , IL) observed 1450 UTC 15 February 2019
Temperature: 16.0°C (61°F)
Dewpoint: 6.0°C (43°F) [RH = 51%]
Pressure (altimeter): 29.91 inches Hg (1013.0 mb)
Winds: from the SSW (210 degrees) at 16 MPH (14 knots; 7.2 m/s)
Visibility: 4 miles ( 6 km)
Ceiling: at least 12,000 feet AGL
Clouds: scattered clouds at 5000 feet AGL
Weather: no significant weather observed at this time

METAR text: LLSD 151350Z 22016KT 6000 FEW040 16/06 Q1013 RMK BKN065
Conditions at: LLSD (SDE DOV AIRPORT , IL) observed 1350 UTC 15 February 2019
Temperature: 16.0°C (61°F)
Dewpoint: 6.0°C (43°F) [RH = 51%]
Pressure (altimeter): 29.91 inches Hg (1013.0 mb)
Winds: from the SW (220 degrees) at 18 MPH (16 knots; 8.2 m/s)
Visibility: 4 miles ( 6 km)
Ceiling: at least 12,000 feet AGL
Clouds: few clouds at 4000 feet AGL
Weather: no significant weather observed at this time

METAR text: LLSD 151250Z 22016KT 5000 HZ FEW041 16/07 Q1013 RMK SCT066
Conditions at: LLSD (SDE DOV AIRPORT , IL) observed 1250 UTC 15 February 2019
Temperature: 16.0°C (61°F)
Dewpoint: 7.0°C (45°F) [RH = 55%]
Pressure (altimeter): 29.91 inches Hg (1013.0 mb)
Winds: from the SW (220 degrees) at 18 MPH (16 knots; 8.2 m/s)
Visibility: 3 miles ( 5 km)
Ceiling: at least 12,000 feet AGL
Clouds: few clouds at 4100 feet AGL
Weather: HZ  (haze)

METAR text: LLSD 151150Z 20016G26KT 6000 SCT023 SCT042 15/04 Q1012
Conditions at: LLSD (SDE DOV AIRPORT , IL) observed 1150 UTC 15 February 2019
Temperature: 15.0°C (59°F)
Dewpoint: 4.0°C (39°F) [RH = 48%]
Pressure (altimeter): 29.88 inches Hg (1012.0 mb)
Winds: from the SSW (200 degrees) at 18 MPH (16 knots; 8.2 m/s)
gusting to 30 MPH (26 knots; 13.4 m/s)
Visibility: 4 miles ( 6 km)
Ceiling: at least 12,000 feet AGL
Clouds: scattered clouds at 2300 feet AGL
scattered clouds at 4200 feet AGL
Weather: no significant weather observed at this time

METAR text: LLSD 151050Z 20016G26KT 9999 SCT042 15/04 Q1013
Conditions at: LLSD (SDE DOV AIRPORT , IL) observed 1050 UTC 15 February 2019
Temperature: 15.0°C (59°F)
Dewpoint: 4.0°C (39°F) [RH = 48%]
Pressure (altimeter): 29.91 inches Hg (1013.0 mb)
Winds: from the SSW (200 degrees) at 18 MPH (16 knots; 8.2 m/s)
gusting to 30 MPH (26 knots; 13.4 m/s)
Visibility: 6 or more miles (10+ km)
Ceiling: at least 12,000 feet AGL
Clouds: scattered clouds at 4200 feet AGL
Weather: no significant weather observed at this time

METAR text: LLSD 150950Z 20017G27KT 9000 FEW040 SCT044 14/05 Q1013
Conditions at: LLSD (SDE DOV AIRPORT , IL) observed 0950 UTC 15 February 2019
Temperature: 14.0°C (57°F)
Dewpoint: 5.0°C (41°F) [RH = 55%]
Pressure (altimeter): 29.91 inches Hg (1013.0 mb)
Winds: from the SSW (200 degrees) at 20 MPH (17 knots; 8.7 m/s)
gusting to 31 MPH (27 knots; 13.9 m/s)
Visibility: 6 miles ( 9 km)
Ceiling: at least 12,000 feet AGL
Clouds: few clouds at 4000 feet AGL
scattered clouds at 4400 feet AGL
Weather: no significant weather observed at this time

METAR text: LLSD 150850Z 20017G29KT 170V230 9999 SCT036 14/04 Q1013
Conditions at: LLSD (SDE DOV AIRPORT , IL) observed 0850 UTC 15 February 2019
Temperature: 14.0°C (57°F)
Dewpoint: 4.0°C (39°F) [RH = 51%]
Pressure (altimeter): 29.91 inches Hg (1013.0 mb)
Winds: from the SSW (200 degrees) at 20 MPH (17 knots; 8.7 m/s)
gusting to 33 MPH (29 knots; 14.9 m/s)
Visibility: 6 or more miles (10+ km)
Ceiling: at least 12,000 feet AGL
Clouds: scattered clouds at 3600 feet AGL
Weather: no significant weather observed at this time

METAR text: LLSD 150750Z 19011KT 140V230 9000 FEW050 14/03 Q1014
Conditions at: LLSD (SDE DOV AIRPORT , IL) observed 0750 UTC 15 February 2019
Temperature: 14.0°C (57°F)
Dewpoint: 3.0°C (37°F) [RH = 47%]
Pressure (altimeter): 29.94 inches Hg (1014.0 mb)
Winds: from the S (190 degrees) at 13 MPH (11 knots; 5.7 m/s)
Visibility: 6 miles ( 9 km)
Ceiling: at least 12,000 feet AGL
Clouds: few clouds at 5000 feet AGL
Weather: no significant weather observed at this time

METAR text: LLSD 150650Z 17010KT 140V200 CAVOK 12/02 Q1014 RMK FEW060 SCT100
Conditions at: LLSD (SDE DOV AIRPORT , IL) observed 0650 UTC 15 February 2019
Temperature: 12.0°C (54°F)
Dewpoint: 2.0°C (36°F) [RH = 50%]
Pressure (altimeter): 29.94 inches Hg (1014.0 mb)
Winds: from the S (170 degrees) at 12 MPH (10 knots; 5.1 m/s)
Visibility: 6 or more miles (10+ km)
Ceiling: ceiling and visibility are OK
Clouds: unknown
Weather: no significant weather observed at this time

METAR text: LLSD 150550Z 16010KT 130V200 9999 FEW040 SCT050 12/02 Q1013
Conditions at: LLSD (SDE DOV AIRPORT , IL) observed 0550 UTC 15 February 2019
Temperature: 12.0°C (54°F)
Dewpoint: 2.0°C (36°F) [RH = 50%]
Pressure (altimeter): 29.91 inches Hg (1013.0 mb)
Winds: from the SSE (160 degrees) at 12 MPH (10 knots; 5.1 m/s)
Visibility: 6 or more miles (10+ km)
Ceiling: at least 12,000 feet AGL
Clouds: few clouds at 4000 feet AGL
scattered clouds at 5000 feet AGL
Weather: no significant weather observed at this time

METAR text: LLSD 150450Z 15011KT 9999 FEW050 11/02 Q1013 RMK SCT066
Conditions at: LLSD (SDE DOV AIRPORT , IL) observed 0450 UTC 15 February 2019
Temperature: 11.0°C (52°F)
Dewpoint: 2.0°C (36°F) [RH = 54%]
Pressure (altimeter): 29.91 inches Hg (1013.0 mb)
Winds: from the SSE (150 degrees) at 13 MPH (11 knots; 5.7 m/s)
Visibility: 6 or more miles (10+ km)
Ceiling: at least 12,000 feet AGL
Clouds: few clouds at 5000 feet AGL
Weather: no significant weather observed at this time

METAR text: LLSD 150350Z 16010KT 9999 FEW040 11/02 Q1012 RMK SCT067
Conditions at: LLSD (SDE DOV AIRPORT , IL) observed 0350 UTC 15 February 2019
Temperature: 11.0°C (52°F)
Dewpoint: 2.0°C (36°F) [RH = 54%]
Pressure (altimeter): 29.88 inches Hg (1012.0 mb)
Winds: from the SSE (160 degrees) at 12 MPH (10 knots; 5.1 m/s)
Visibility: 6 or more miles (10+ km)
Ceiling: at least 12,000 feet AGL
Clouds: few clouds at 4000 feet AGL
Weather: no significant weather observed at this time

METAR text: LLSD 142050Z 25027G41KT 9999 FEW045 13/04 Q1012 RMK BKN080
Conditions at: LLSD (SDE DOV AIRPORT , IL) observed 2050 UTC 14 February 2019
Temperature: 13.0°C (55°F)
Dewpoint: 4.0°C (39°F) [RH = 54%]
Pressure (altimeter): 29.88 inches Hg (1012.0 mb)
Winds: from the WSW (250 degrees) at 31 MPH (27 knots; 13.9 m/s)
gusting to 47 MPH (41 knots; 21.1 m/s)
Visibility: 6 or more miles (10+ km)
Ceiling: at least 12,000 feet AGL
Clouds: few clouds at 4500 feet AGL
Weather: no significant weather observed at this time

METAR text: LLSD 141950Z 24022KT 9999 SCT030 14/06 Q1012 RMK BKN055
Conditions at: LLSD (SDE DOV AIRPORT , IL) observed 1950 UTC 14 February 2019
Temperature: 14.0°C (57°F)
Dewpoint: 6.0°C (43°F) [RH = 58%]
Pressure (altimeter): 29.88 inches Hg (1012.0 mb)
Winds: from the WSW (240 degrees) at 25 MPH (22 knots; 11.3 m/s)
Visibility: 6 or more miles (10+ km)
Ceiling: at least 12,000 feet AGL
Clouds: scattered clouds at 3000 feet AGL
Weather: no significant weather observed at this time

METAR text: LLSD 141850Z 24020KT 9999 FEW025 SCT040 15/05 Q1012 RMK BKN056 RERA
Conditions at: LLSD (SDE DOV AIRPORT , IL) observed 1850 UTC 14 February 2019
Temperature: 15.0°C (59°F)
Dewpoint: 5.0°C (41°F) [RH = 51%]
Pressure (altimeter): 29.88 inches Hg (1012.0 mb)
Winds: from the WSW (240 degrees) at 23 MPH (20 knots; 10.3 m/s)
Visibility: 6 or more miles (10+ km)
Ceiling: at least 12,000 feet AGL
Clouds: few clouds at 2500 feet AGL
scattered clouds at 4000 feet AGL
Weather: no significant weather observed at this time

METAR text: LLSD 141750Z 23020KT 9999 SCT025 15/05 Q1012 RESHRA RESHGS
Conditions at: LLSD (SDE DOV AIRPORT , IL) observed 1750 UTC 14 February 2019
Temperature: 15.0°C (59°F)
Dewpoint: 5.0°C (41°F) [RH = 51%]
Pressure (altimeter): 29.88 inches Hg (1012.0 mb)
Winds: from the SW (230 degrees) at 23 MPH (20 knots; 10.3 m/s)
Visibility: 6 or more miles (10+ km)
Ceiling: at least 12,000 feet AGL
Clouds: scattered clouds at 2500 feet AGL
Weather: SHGS  (small hail or graupel showers)

Forecast for: LLSD (SDE DOV AIRPORT , IL)
Text: TAF LLSD 160515Z 1606/1706 24016KT 9999 BKN028
Forecast period: 0600 to 1700 UTC 16 February 2019
Forecast type: FROM: standard forecast or significant change
Winds: from the WSW (240 degrees) at 18 MPH (16 knots; 8.2 m/s)
Visibility: 6 or more miles 10+ km)
Ceiling: 2800 feet AGL
Clouds: broken clouds at 2800 feet AGL
Weather: no significant weather forecast for this period
Text: TEMPO 1606/1617 26020KT 5000 TSRA FEW015 FEW021CB
Forecast period: 0600 to 1700 UTC 16 February 2019
Forecast type: TEMPORARY: The following changes expected for less than half the time period
Winds: from the W (260 degrees) at 23 MPH (20 knots; 10.3 m/s)
Visibility: 3 miles (5 km)
Ceiling: at least 12,000 feet AGL
Clouds: few clouds at 1500 feet AGL
few clouds at 2100 feet AGL
Weather: TSRA  (rain associated with thunderstorm(s))
Text: FM161700 20010KT 9999 BKN028
Forecast period: 1700 UTC 16 February 2019 to 0600 UTC 17 February 2019
Forecast type: FROM: standard forecast or significant change
Winds: from the SSW (200 degrees) at 12 MPH (10 knots; 5.1 m/s)
Visibility: 6 or more miles 10+ km)
Ceiling: 2800 feet AGL
Clouds: broken clouds at 2800 feet AGL
Weather: no significant weather forecast for this period
Text: PROB40 1617/1624 23015G25KT 5000 TSRA FEW020CB
Forecast period: 1700 UTC 16 February 2019 to 0000 UTC 17 February 2019
Forecast type: PROBABLE: 40 percent likelihood of the following during this time
Winds: from the SW (230 degrees) at 17 MPH (15 knots; 7.7 m/s)
gusting to 29 MPH (25 knots; 12.9 m/s)
Visibility: 3 miles (5 km)
Ceiling: at least 12,000 feet AGL
Clouds: few clouds at 2000 feet AGL
Weather: TSRA  (rain associated with thunderstorm(s))
Text: PROB40 1700/1706 5000 TSRA FEW020CB TX15/1612Z TN10/1704Z
Forecast period: 0000 to 0600 UTC 17 February 2019
Forecast type: PROBABLE: 40 percent likelihood of the following during this time
Visibility: 3 miles (5 km)
Ceiling: at least 12,000 feet AGL
Clouds: few clouds at 2000 feet AGL
Weather: TSRA  (rain associated with thunderstorm(s))